sensor_id;sensor_type;location;lat;lon;timestamp;temperature;humidity
1538;DHT22;12022;52.266;10.522;2022-07-23T00:00:31;18.90;99.90
1538;DHT22;12022;52.266;10.522;2022-07-23T00:03:04;18.90;99.90
1538;DHT22;12022;52.266;10.522;2022-07-23T00:05:31;18.80;99.90
1538;DHT22;12022;52.266;10.522;2022-07-23T00:08:01;18.80;99.90
1538;DHT22;12022;52.266;10.522;2022-07-23T00:10:28;18.80;99.90
1538;DHT22;12022;52.266;10.522;2022-07-23T00:12:55;18.80;99.90
1538;DHT22;12022;52.266;10.522;2022-07-23T00:15:22;18.70;99.90
1538;DHT22;12022;52.266;10.522;2022-07-23T00:17:49;18.70;99.90
1538;DHT22;12022;52.266;10.522;2022-07-23T00:20:16;18.70;99.90
1538;DHT22;12022;52.266;10.522;2022-07-23T00:22:51;18.60;99.90
1538;DHT22;12022;52.266;10.522;2022-07-23T00:25:19;18.60;99.90
1538;DHT22;12022;52.266;10.522;2022-07-23T00:27:57;18.70;99.90
1538;DHT22;12022;52.266;10.522;2022-07-23T00:30:25;18.70;99.90
1538;DHT22;12022;52.266;10.522;2022-07-23T00:32:55;18.70;99.90
1538;DHT22;12022;52.266;10.522;2022-07-23T00:35:25;18.70;99.90
1538;DHT22;12022;52.266;10.522;2022-07-23T00:37:53;18.70;99.90
1538;DHT22;12022;52.266;10.522;2022-07-23T00:40:20;18.80;99.90
1538;DHT22;12022;52.266;10.522;2022-07-23T00:42:48;18.80;99.90
1538;DHT22;12022;52.266;10.522;2022-07-23T00:45:14;18.80;99.90
1538;DHT22;12022;52.266;10.522;2022-07-23T00:47:41;18.80;99.90
1538;DHT22;12022;52.266;10.522;2022-07-23T00:50:09;18.80;99.90
1538;DHT22;12022;52.266;10.522;2022-07-23T00:52:37;18.90;99.90
1538;DHT22;12022;52.266;10.522;2022-07-23T00:55:05;18.90;99.90
1538;DHT22;12022;52.266;10.522;2022-07-23T00:57:33;18.80;99.90
1538;DHT22;12022;52.266;10.522;2022-07-23T01:00:00;18.80;99.90
1538;DHT22;12022;52.266;10.522;2022-07-23T01:02:28;18.70;99.90
1538;DHT22;12022;52.266;10.522;2022-07-23T01:04:54;18.70;99.90
1538;DHT22;12022;52.266;10.522;2022-07-23T01:07:21;18.60;99.90
1538;DHT22;12022;52.266;10.522;2022-07-23T01:09:50;18.60;99.90
1538;DHT22;12022;52.266;10.522;2022-07-23T01:12:18;18.60;99.90
1538;DHT22;12022;52.266;10.522;2022-07-23T01:14:45;18.60;99.90
1538;DHT22;12022;52.266;10.522;2022-07-23T01:17:12;18.60;99.90
1538;DHT22;12022;52.266;10.522;2022-07-23T01:19:39;18.60;99.90
1538;DHT22;12022;52.266;10.522;2022-07-23T01:22:06;18.50;99.90
1538;DHT22;12022;52.266;10.522;2022-07-23T01:24:33;18.50;99.90
1538;DHT22;12022;52.266;10.522;2022-07-23T01:27:00;18.40;99.90
1538;DHT22;12022;52.266;10.522;2022-07-23T01:29:27;18.40;99.90
1538;DHT22;12022;52.266;10.522;2022-07-23T01:31:54;18.40;99.90
1538;DHT22;12022;52.266;10.522;2022-07-23T01:34:21;18.30;99.90
1538;DHT22;12022;52.266;10.522;2022-07-23T01:36:48;18.30;99.90
1538;DHT22;12022;52.266;10.522;2022-07-23T01:39:15;18.20;99.90
1538;DHT22;12022;52.266;10.522;2022-07-23T01:41:43;18.20;99.90
1538;DHT22;12022;52.266;10.522;2022-07-23T01:44:13;18.20;99.90
1538;DHT22;12022;52.266;10.522;2022-07-23T01:46:40;18.10;99.90
1538;DHT22;12022;52.266;10.522;2022-07-23T01:49:07;18.10;99.90
1538;DHT22;12022;52.266;10.522;2022-07-23T01:51:34;18.10;99.90
1538;DHT22;12022;52.266;10.522;2022-07-23T01:54:01;18.00;99.90
1538;DHT22;12022;52.266;10.522;2022-07-23T01:56:28;18.00;99.90
1538;DHT22;12022;52.266;10.522;2022-07-23T01:58:54;18.00;99.90
1538;DHT22;12022;52.266;10.522;2022-07-23T02:01:21;17.90;99.90
1538;DHT22;12022;52.266;10.522;2022-07-23T02:03:48;17.90;99.90
1538;DHT22;12022;52.266;10.522;2022-07-23T02:06:34;17.90;99.90
1538;DHT22;12022;52.266;10.522;2022-07-23T02:09:01;17.90;99.90
1538;DHT22;12022;52.266;10.522;2022-07-23T02:11:29;17.90;99.90
1538;DHT22;12022;52.266;10.522;2022-07-23T02:13:55;17.90;99.90
1538;DHT22;12022;52.266;10.522;2022-07-23T02:16:22;17.80;99.90
1538;DHT22;12022;52.266;10.522;2022-07-23T02:18:49;17.80;99.90
1538;DHT22;12022;52.266;10.522;2022-07-23T02:21:17;17.80;99.90
1538;DHT22;12022;52.266;10.522;2022-07-23T02:23:44;17.90;99.90
1538;DHT22;12022;52.266;10.522;2022-07-23T02:26:11;17.90;99.90
1538;DHT22;12022;52.266;10.522;2022-07-23T02:28:45;17.90;99.90
1538;DHT22;12022;52.266;10.522;2022-07-23T02:31:12;18.00;99.90
1538;DHT22;12022;52.266;10.522;2022-07-23T02:33:39;18.00;99.90
1538;DHT22;12022;52.266;10.522;2022-07-23T02:36:06;18.00;99.90
1538;DHT22;12022;52.266;10.522;2022-07-23T02:38:33;18.00;99.90
1538;DHT22;12022;52.266;10.522;2022-07-23T02:41:00;17.90;99.90
1538;DHT22;12022;52.266;10.522;2022-07-23T02:43:27;17.90;99.90
1538;DHT22;12022;52.266;10.522;2022-07-23T02:45:54;17.80;99.90
1538;DHT22;12022;52.266;10.522;2022-07-23T02:48:21;17.80;99.90
1538;DHT22;12022;52.266;10.522;2022-07-23T02:50:48;17.70;99.90
1538;DHT22;12022;52.266;10.522;2022-07-23T02:53:15;17.70;99.90
1538;DHT22;12022;52.266;10.522;2022-07-23T02:55:42;17.60;99.90
1538;DHT22;12022;52.266;10.522;2022-07-23T02:58:09;17.60;99.90
1538;DHT22;12022;52.266;10.522;2022-07-23T03:00:36;17.50;99.90
1538;DHT22;12022;52.266;10.522;2022-07-23T03:03:03;17.50;99.90
1538;DHT22;12022;52.266;10.522;2022-07-23T03:05:30;17.50;99.90
1538;DHT22;12022;52.266;10.522;2022-07-23T03:07:57;17.50;99.90
1538;DHT22;12022;52.266;10.522;2022-07-23T03:10:24;17.50;99.90
1538;DHT22;12022;52.266;10.522;2022-07-23T03:12:51;17.50;99.90
1538;DHT22;12022;52.266;10.522;2022-07-23T03:15:18;17.50;99.90
1538;DHT22;12022;52.266;10.522;2022-07-23T03:17:45;17.60;99.90
1538;DHT22;12022;52.266;10.522;2022-07-23T03:20:11;17.60;99.90
1538;DHT22;12022;52.266;10.522;2022-07-23T03:22:38;17.60;99.90
1538;DHT22;12022;52.266;10.522;2022-07-23T03:25:06;17.60;99.90
1538;DHT22;12022;52.266;10.522;2022-07-23T03:27:33;17.70;99.90
1538;DHT22;12022;52.266;10.522;2022-07-23T03:30:00;17.70;99.90
1538;DHT22;12022;52.266;10.522;2022-07-23T03:32:27;17.70;99.90
1538;DHT22;12022;52.266;10.522;2022-07-23T03:34:54;17.80;99.90
1538;DHT22;12022;52.266;10.522;2022-07-23T03:37:22;17.80;99.90
1538;DHT22;12022;52.266;10.522;2022-07-23T03:39:49;17.80;99.90
1538;DHT22;12022;52.266;10.522;2022-07-23T03:42:16;17.80;99.90
1538;DHT22;12022;52.266;10.522;2022-07-23T03:44:43;17.80;99.90
1538;DHT22;12022;52.266;10.522;2022-07-23T03:47:10;17.80;99.90
1538;DHT22;12022;52.266;10.522;2022-07-23T03:49:37;17.80;99.90
1538;DHT22;12022;52.266;10.522;2022-07-23T03:52:04;17.80;99.90
1538;DHT22;12022;52.266;10.522;2022-07-23T03:54:31;17.80;99.90
1538;DHT22;12022;52.266;10.522;2022-07-23T03:56:58;17.80;99.90
1538;DHT22;12022;52.266;10.522;2022-07-23T03:59:25;17.80;99.90
1538;DHT22;12022;52.266;10.522;2022-07-23T04:01:52;17.80;99.90
1538;DHT22;12022;52.266;10.522;2022-07-23T04:04:19;17.80;99.90
1538;DHT22;12022;52.266;10.522;2022-07-23T04:06:46;17.80;99.90
1538;DHT22;12022;52.266;10.522;2022-07-23T04:09:13;17.80;99.90
1538;DHT22;12022;52.266;10.522;2022-07-23T04:11:40;17.80;99.90
1538;DHT22;12022;52.266;10.522;2022-07-23T04:14:07;17.80;99.90
1538;DHT22;12022;52.266;10.522;2022-07-23T04:16:34;17.80;99.90
1538;DHT22;12022;52.266;10.522;2022-07-23T04:19:01;17.80;99.90
1538;DHT22;12022;52.266;10.522;2022-07-23T04:21:28;17.80;99.90
1538;DHT22;12022;52.266;10.522;2022-07-23T04:23:55;17.90;99.90
1538;DHT22;12022;52.266;10.522;2022-07-23T04:26:22;17.90;99.90
1538;DHT22;12022;52.266;10.522;2022-07-23T04:28:49;17.90;99.90
1538;DHT22;12022;52.266;10.522;2022-07-23T04:31:16;17.90;99.90
1538;DHT22;12022;52.266;10.522;2022-07-23T04:33:43;18.00;99.90
1538;DHT22;12022;52.266;10.522;2022-07-23T04:36:10;18.00;99.90
1538;DHT22;12022;52.266;10.522;2022-07-23T04:38:37;18.00;99.90
1538;DHT22;12022;52.266;10.522;2022-07-23T04:41:04;18.00;99.90
1538;DHT22;12022;52.266;10.522;2022-07-23T04:43:31;18.00;99.90
1538;DHT22;12022;52.266;10.522;2022-07-23T04:45:58;17.90;99.90
1538;DHT22;12022;52.266;10.522;2022-07-23T04:48:25;17.80;99.90
1538;DHT22;12022;52.266;10.522;2022-07-23T04:50:54;17.80;99.90
1538;DHT22;12022;52.266;10.522;2022-07-23T04:53:20;17.70;99.90
1538;DHT22;12022;52.266;10.522;2022-07-23T04:55:47;17.60;99.90
1538;DHT22;12022;52.266;10.522;2022-07-23T04:58:14;17.60;99.90
1538;DHT22;12022;52.266;10.522;2022-07-23T05:00:42;17.50;99.90
1538;DHT22;12022;52.266;10.522;2022-07-23T05:03:08;17.50;99.90
1538;DHT22;12022;52.266;10.522;2022-07-23T05:05:35;17.40;99.90
1538;DHT22;12022;52.266;10.522;2022-07-23T05:08:03;17.30;99.90
1538;DHT22;12022;52.266;10.522;2022-07-23T05:10:32;17.30;99.90
1538;DHT22;12022;52.266;10.522;2022-07-23T05:12:59;17.30;99.90
1538;DHT22;12022;52.266;10.522;2022-07-23T05:15:26;17.30;99.90
1538;DHT22;12022;52.266;10.522;2022-07-23T05:17:53;17.40;99.90
1538;DHT22;12022;52.266;10.522;2022-07-23T05:20:20;17.40;99.90
1538;DHT22;12022;52.266;10.522;2022-07-23T05:22:47;17.40;99.90
1538;DHT22;12022;52.266;10.522;2022-07-23T05:25:14;17.40;99.90
1538;DHT22;12022;52.266;10.522;2022-07-23T05:27:41;17.40;99.90
1538;DHT22;12022;52.266;10.522;2022-07-23T05:30:10;17.50;99.90
1538;DHT22;12022;52.266;10.522;2022-07-23T05:32:37;17.50;99.90
1538;DHT22;12022;52.266;10.522;2022-07-23T05:35:06;17.50;99.90
1538;DHT22;12022;52.266;10.522;2022-07-23T05:37:33;17.60;99.90
1538;DHT22;12022;52.266;10.522;2022-07-23T05:40:02;17.60;99.90
1538;DHT22;12022;52.266;10.522;2022-07-23T05:42:29;17.90;99.90
1538;DHT22;12022;52.266;10.522;2022-07-23T05:44:56;18.00;99.90
1538;DHT22;12022;52.266;10.522;2022-07-23T05:47:23;18.10;99.90
1538;DHT22;12022;52.266;10.522;2022-07-23T05:49:50;18.30;99.90
1538;DHT22;12022;52.266;10.522;2022-07-23T05:52:17;18.50;99.90
1538;DHT22;12022;52.266;10.522;2022-07-23T05:54:44;19.00;99.90
1538;DHT22;12022;52.266;10.522;2022-07-23T05:57:11;19.40;99.90
1538;DHT22;12022;52.266;10.522;2022-07-23T05:59:38;20.00;99.90
1538;DHT22;12022;52.266;10.522;2022-07-23T06:02:05;21.10;99.90
1538;DHT22;12022;52.266;10.522;2022-07-23T06:04:32;21.90;99.90
1538;DHT22;12022;52.266;10.522;2022-07-23T06:06:59;22.60;99.90
1538;DHT22;12022;52.266;10.522;2022-07-23T06:09:26;24.00;99.90
1538;DHT22;12022;52.266;10.522;2022-07-23T06:11:53;25.80;99.90
1538;DHT22;12022;52.266;10.522;2022-07-23T06:14:20;27.50;99.90
1538;DHT22;12022;52.266;10.522;2022-07-23T06:16:47;29.00;99.90
1538;DHT22;12022;52.266;10.522;2022-07-23T06:19:14;30.20;99.90
1538;DHT22;12022;52.266;10.522;2022-07-23T06:21:44;31.40;99.90
1538;DHT22;12022;52.266;10.522;2022-07-23T06:24:13;32.30;98.60
1538;DHT22;12022;52.266;10.522;2022-07-23T06:26:43;32.90;96.50
1538;DHT22;12022;52.266;10.522;2022-07-23T06:29:13;33.60;94.60
1538;DHT22;12022;52.266;10.522;2022-07-23T06:31:40;34.30;93.50
1538;DHT22;12022;52.266;10.522;2022-07-23T06:34:07;34.90;91.90
1538;DHT22;12022;52.266;10.522;2022-07-23T06:36:35;35.60;89.90
1538;DHT22;12022;52.266;10.522;2022-07-23T06:39:02;36.40;86.70
1538;DHT22;12022;52.266;10.522;2022-07-23T06:41:29;37.00;84.20
1538;DHT22;12022;52.266;10.522;2022-07-23T06:43:56;37.60;80.10
1538;DHT22;12022;52.266;10.522;2022-07-23T06:46:23;37.90;77.50
1538;DHT22;12022;52.266;10.522;2022-07-23T06:48:51;38.30;75.70
1538;DHT22;12022;52.266;10.522;2022-07-23T06:51:19;38.80;73.50
1538;DHT22;12022;52.266;10.522;2022-07-23T06:53:46;39.30;71.50
1538;DHT22;12022;52.266;10.522;2022-07-23T06:56:13;39.70;68.90
1538;DHT22;12022;52.266;10.522;2022-07-23T06:58:40;39.80;66.80
1538;DHT22;12022;52.266;10.522;2022-07-23T07:01:07;40.10;65.10
1538;DHT22;12022;52.266;10.522;2022-07-23T07:03:34;40.30;63.90
1538;DHT22;12022;52.266;10.522;2022-07-23T07:06:01;40.20;59.70
1538;DHT22;12022;52.266;10.522;2022-07-23T07:08:29;40.10;60.50
1538;DHT22;12022;52.266;10.522;2022-07-23T07:10:56;40.00;59.30
1538;DHT22;12022;52.266;10.522;2022-07-23T07:13:23;40.40;59.20
1538;DHT22;12022;52.266;10.522;2022-07-23T07:15:50;40.70;58.10
1538;DHT22;12022;52.266;10.522;2022-07-23T07:18:17;40.70;56.00
1538;DHT22;12022;52.266;10.522;2022-07-23T07:20:44;40.10;58.90
1538;DHT22;12022;52.266;10.522;2022-07-23T07:23:12;39.90;58.00
1538;DHT22;12022;52.266;10.522;2022-07-23T07:25:42;39.50;56.70
1538;DHT22;12022;52.266;10.522;2022-07-23T07:28:09;38.90;58.80
1538;DHT22;12022;52.266;10.522;2022-07-23T07:30:36;38.70;58.60
1538;DHT22;12022;52.266;10.522;2022-07-23T07:33:03;38.40;59.40
1538;DHT22;12022;52.266;10.522;2022-07-23T07:35:30;38.90;58.40
1538;DHT22;12022;52.266;10.522;2022-07-23T07:38:00;39.80;57.00
1538;DHT22;12022;52.266;10.522;2022-07-23T07:40:27;39.90;57.30
1538;DHT22;12022;52.266;10.522;2022-07-23T07:42:59;39.60;56.70
1538;DHT22;12022;52.266;10.522;2022-07-23T07:45:28;40.00;57.10
1538;DHT22;12022;52.266;10.522;2022-07-23T07:47:56;39.70;55.40
1538;DHT22;12022;52.266;10.522;2022-07-23T07:50:24;38.20;56.00
1538;DHT22;12022;52.266;10.522;2022-07-23T07:52:51;37.50;58.70
1538;DHT22;12022;52.266;10.522;2022-07-23T07:55:18;38.10;57.80
1538;DHT22;12022;52.266;10.522;2022-07-23T07:57:45;37.80;57.30
1538;DHT22;12022;52.266;10.522;2022-07-23T08:00:15;37.00;56.50
1538;DHT22;12022;52.266;10.522;2022-07-23T08:02:50;36.50;57.00
1538;DHT22;12022;52.266;10.522;2022-07-23T08:05:25;37.30;57.40
1538;DHT22;12022;52.266;10.522;2022-07-23T08:07:55;38.70;56.20
1538;DHT22;12022;52.266;10.522;2022-07-23T08:10:23;39.60;54.60
1538;DHT22;12022;52.266;10.522;2022-07-23T08:12:52;40.00;54.20
1538;DHT22;12022;52.266;10.522;2022-07-23T08:15:21;39.20;54.50
1538;DHT22;12022;52.266;10.522;2022-07-23T08:17:48;37.90;54.60
1538;DHT22;12022;52.266;10.522;2022-07-23T08:20:18;37.70;54.00
1538;DHT22;12022;52.266;10.522;2022-07-23T08:22:58;38.70;52.70
1538;DHT22;12022;52.266;10.522;2022-07-23T08:25:27;39.20;51.10
1538;DHT22;12022;52.266;10.522;2022-07-23T08:27:56;38.40;50.90
1538;DHT22;12022;52.266;10.522;2022-07-23T08:30:24;37.10;53.10
1538;DHT22;12022;52.266;10.522;2022-07-23T08:32:56;36.00;53.70
1538;DHT22;12022;52.266;10.522;2022-07-23T08:35:45;34.80;58.30
1538;DHT22;12022;52.266;10.522;2022-07-23T08:38:16;33.50;56.60
1538;DHT22;12022;52.266;10.522;2022-07-23T08:40:55;32.40;58.80
1538;DHT22;12022;52.266;10.522;2022-07-23T08:43:27;31.90;59.50
1538;DHT22;12022;52.266;10.522;2022-07-23T08:45:55;31.50;61.10
1538;DHT22;12022;52.266;10.522;2022-07-23T08:48:29;31.30;61.70
1538;DHT22;12022;52.266;10.522;2022-07-23T08:50:59;31.10;62.00
1538;DHT22;12022;52.266;10.522;2022-07-23T08:53:28;30.70;64.20
1538;DHT22;12022;52.266;10.522;2022-07-23T08:55:58;30.30;65.50
1538;DHT22;12022;52.266;10.522;2022-07-23T08:58:26;30.00;65.40
1538;DHT22;12022;52.266;10.522;2022-07-23T09:00:55;29.80;67.10
1538;DHT22;12022;52.266;10.522;2022-07-23T09:03:32;29.70;67.00
1538;DHT22;12022;52.266;10.522;2022-07-23T09:06:00;29.50;67.00
1538;DHT22;12022;52.266;10.522;2022-07-23T09:08:37;29.10;65.50
1538;DHT22;12022;52.266;10.522;2022-07-23T09:11:09;28.60;68.40
1538;DHT22;12022;52.266;10.522;2022-07-23T09:13:41;28.40;70.40
1538;DHT22;12022;52.266;10.522;2022-07-23T09:16:17;28.40;69.50
1538;DHT22;12022;52.266;10.522;2022-07-23T09:18:54;28.70;70.20
1538;DHT22;12022;52.266;10.522;2022-07-23T09:21:27;28.80;68.20
1538;DHT22;12022;52.266;10.522;2022-07-23T09:23:56;28.60;68.20
1538;DHT22;12022;52.266;10.522;2022-07-23T09:26:44;28.30;68.10
1538;DHT22;12022;52.266;10.522;2022-07-23T09:29:15;28.00;69.60
1538;DHT22;12022;52.266;10.522;2022-07-23T09:36:46;27.30;70.40
1538;DHT22;12022;52.266;10.522;2022-07-23T09:39:15;27.40;70.60
1538;DHT22;12022;52.266;10.522;2022-07-23T09:41:44;27.50;71.00
1538;DHT22;12022;52.266;10.522;2022-07-23T09:44:17;27.50;71.50
1538;DHT22;12022;52.266;10.522;2022-07-23T09:46:49;27.50;69.10
1538;DHT22;12022;52.266;10.522;2022-07-23T09:49:21;27.30;69.50
1538;DHT22;12022;52.266;10.522;2022-07-23T09:51:57;27.40;69.10
1538;DHT22;12022;52.266;10.522;2022-07-23T09:54:38;27.50;71.30
1538;DHT22;12022;52.266;10.522;2022-07-23T09:57:08;27.60;71.60
1538;DHT22;12022;52.266;10.522;2022-07-23T09:59:39;27.50;70.70
1538;DHT22;12022;52.266;10.522;2022-07-23T10:02:08;27.30;72.20
1538;DHT22;12022;52.266;10.522;2022-07-23T10:04:35;27.10;72.00
1538;DHT22;12022;52.266;10.522;2022-07-23T10:07:05;27.10;73.10
1538;DHT22;12022;52.266;10.522;2022-07-23T10:09:40;27.10;74.10
1538;DHT22;12022;52.266;10.522;2022-07-23T10:12:13;27.00;72.00
1538;DHT22;12022;52.266;10.522;2022-07-23T10:14:49;26.80;72.90
1538;DHT22;12022;52.266;10.522;2022-07-23T10:17:18;26.60;71.30
1538;DHT22;12022;52.266;10.522;2022-07-23T10:19:46;26.60;73.80
1538;DHT22;12022;52.266;10.522;2022-07-23T10:22:24;26.80;73.70
1538;DHT22;12022;52.266;10.522;2022-07-23T10:25:09;27.10;73.60
1538;DHT22;12022;52.266;10.522;2022-07-23T10:36:52;27.40;70.90
1538;DHT22;12022;52.266;10.522;2022-07-23T10:39:27;27.50;71.20
1538;DHT22;12022;52.266;10.522;2022-07-23T10:42:14;27.40;71.30
1538;DHT22;12022;52.266;10.522;2022-07-23T10:44:46;27.30;71.60
1538;DHT22;12022;52.266;10.522;2022-07-23T10:47:40;27.20;71.80
1538;DHT22;12022;52.266;10.522;2022-07-23T10:55:39;27.20;70.70
1538;DHT22;12022;52.266;10.522;2022-07-23T10:58:06;27.40;72.40
1538;DHT22;12022;52.266;10.522;2022-07-23T11:00:35;27.50;71.80
1538;DHT22;12022;52.266;10.522;2022-07-23T11:03:05;27.60;71.60
1538;DHT22;12022;52.266;10.522;2022-07-23T11:05:51;27.50;72.80
1538;DHT22;12022;52.266;10.522;2022-07-23T11:08:19;27.40;73.20
1538;DHT22;12022;52.266;10.522;2022-07-23T11:10:55;27.20;72.80
1538;DHT22;12022;52.266;10.522;2022-07-23T11:16:04;26.80;73.90
1538;DHT22;12022;52.266;10.522;2022-07-23T11:24:13;26.80;71.80
1538;DHT22;12022;52.266;10.522;2022-07-23T11:31:58;27.00;71.10
1538;DHT22;12022;52.266;10.522;2022-07-23T11:37:00;26.80;71.40
1538;DHT22;12022;52.266;10.522;2022-07-23T11:39:29;26.70;72.20
1538;DHT22;12022;52.266;10.522;2022-07-23T11:41:58;26.70;72.70
1538;DHT22;12022;52.266;10.522;2022-07-23T11:44:27;26.70;73.00
1538;DHT22;12022;52.266;10.522;2022-07-23T11:46:59;26.80;73.00
1538;DHT22;12022;52.266;10.522;2022-07-23T11:49:27;26.90;72.70
1538;DHT22;12022;52.266;10.522;2022-07-23T11:52:13;27.00;73.00
1538;DHT22;12022;52.266;10.522;2022-07-23T11:55:10;27.10;72.80
1538;DHT22;12022;52.266;10.522;2022-07-23T11:57:40;27.30;73.00
1538;DHT22;12022;52.266;10.522;2022-07-23T12:00:14;27.50;70.70
1538;DHT22;12022;52.266;10.522;2022-07-23T12:02:46;27.60;71.10
1538;DHT22;12022;52.266;10.522;2022-07-23T12:05:19;27.80;73.20
1538;DHT22;12022;52.266;10.522;2022-07-23T12:07:49;27.80;70.00
1538;DHT22;12022;52.266;10.522;2022-07-23T12:10:18;27.70;70.00
1538;DHT22;12022;52.266;10.522;2022-07-23T12:12:48;27.60;69.40
1538;DHT22;12022;52.266;10.522;2022-07-23T12:15:18;27.60;70.80
1538;DHT22;12022;52.266;10.522;2022-07-23T12:17:46;27.60;70.10
1538;DHT22;12022;52.266;10.522;2022-07-23T12:20:29;27.70;70.80
1538;DHT22;12022;52.266;10.522;2022-07-23T12:23:00;27.90;70.40
1538;DHT22;12022;52.266;10.522;2022-07-23T12:25:30;28.00;71.80
1538;DHT22;12022;52.266;10.522;2022-07-23T12:28:10;28.10;70.60
1538;DHT22;12022;52.266;10.522;2022-07-23T12:30:49;28.20;67.80
1538;DHT22;12022;52.266;10.522;2022-07-23T12:33:31;28.20;68.80
1538;DHT22;12022;52.266;10.522;2022-07-23T12:36:01;28.10;68.50
1538;DHT22;12022;52.266;10.522;2022-07-23T12:38:37;27.90;67.90
1538;DHT22;12022;52.266;10.522;2022-07-23T12:41:04;27.70;69.10
1538;DHT22;12022;52.266;10.522;2022-07-23T12:43:39;27.60;70.00
1538;DHT22;12022;52.266;10.522;2022-07-23T12:46:15;27.50;70.50
1538;DHT22;12022;52.266;10.522;2022-07-23T12:51:28;27.30;69.90
1538;DHT22;12022;52.266;10.522;2022-07-23T12:54:08;27.30;69.70
1538;DHT22;12022;52.266;10.522;2022-07-23T12:56:38;27.20;69.10
1538;DHT22;12022;52.266;10.522;2022-07-23T12:59:09;27.30;70.10
1538;DHT22;12022;52.266;10.522;2022-07-23T13:01:39;27.40;70.30
1538;DHT22;12022;52.266;10.522;2022-07-23T13:04:11;27.50;71.80
1538;DHT22;12022;52.266;10.522;2022-07-23T13:06:57;27.50;70.20
1538;DHT22;12022;52.266;10.522;2022-07-23T13:09:28;27.40;70.60
1538;DHT22;12022;52.266;10.522;2022-07-23T13:11:59;27.30;71.20
1538;DHT22;12022;52.266;10.522;2022-07-23T13:14:27;27.30;71.50
1538;DHT22;12022;52.266;10.522;2022-07-23T13:16:56;27.30;71.30
1538;DHT22;12022;52.266;10.522;2022-07-23T13:19:25;27.20;71.10
1538;DHT22;12022;52.266;10.522;2022-07-23T13:21:54;27.00;70.40
1538;DHT22;12022;52.266;10.522;2022-07-23T13:24:21;27.00;69.80
1538;DHT22;12022;52.266;10.522;2022-07-23T13:26:48;26.80;70.70
1538;DHT22;12022;52.266;10.522;2022-07-23T13:29:18;26.80;71.90
1538;DHT22;12022;52.266;10.522;2022-07-23T13:31:46;26.80;71.20
1538;DHT22;12022;52.266;10.522;2022-07-23T13:34:14;26.80;71.50
1538;DHT22;12022;52.266;10.522;2022-07-23T13:36:41;26.80;69.90
1538;DHT22;12022;52.266;10.522;2022-07-23T13:39:10;26.90;71.40
1538;DHT22;12022;52.266;10.522;2022-07-23T13:41:40;26.80;70.70
1538;DHT22;12022;52.266;10.522;2022-07-23T13:44:17;26.70;70.50
1538;DHT22;12022;52.266;10.522;2022-07-23T13:46:46;26.70;69.70
1538;DHT22;12022;52.266;10.522;2022-07-23T13:49:13;26.60;70.90
1538;DHT22;12022;52.266;10.522;2022-07-23T13:51:41;26.60;70.60
1538;DHT22;12022;52.266;10.522;2022-07-23T13:54:08;26.90;72.70
1538;DHT22;12022;52.266;10.522;2022-07-23T13:56:35;27.00;70.90
1538;DHT22;12022;52.266;10.522;2022-07-23T13:59:03;27.20;70.50
1538;DHT22;12022;52.266;10.522;2022-07-23T14:01:33;27.00;69.70
1538;DHT22;12022;52.266;10.522;2022-07-23T14:04:11;27.00;69.30
1538;DHT22;12022;52.266;10.522;2022-07-23T14:06:38;27.00;69.60
1538;DHT22;12022;52.266;10.522;2022-07-23T14:09:05;27.10;70.20
1538;DHT22;12022;52.266;10.522;2022-07-23T14:11:34;27.30;70.60
1538;DHT22;12022;52.266;10.522;2022-07-23T14:14:02;27.40;70.40
1538;DHT22;12022;52.266;10.522;2022-07-23T14:16:29;27.40;68.60
1538;DHT22;12022;52.266;10.522;2022-07-23T14:18:56;27.30;70.60
1538;DHT22;12022;52.266;10.522;2022-07-23T14:21:23;27.30;71.00
1538;DHT22;12022;52.266;10.522;2022-07-23T14:23:51;27.20;70.00
1538;DHT22;12022;52.266;10.522;2022-07-23T14:26:18;27.10;69.90
1538;DHT22;12022;52.266;10.522;2022-07-23T14:28:46;27.10;70.90
1538;DHT22;12022;52.266;10.522;2022-07-23T14:31:15;27.10;70.20
1538;DHT22;12022;52.266;10.522;2022-07-23T14:33:48;27.00;68.90
1538;DHT22;12022;52.266;10.522;2022-07-23T14:36:15;26.80;69.80
1538;DHT22;12022;52.266;10.522;2022-07-23T14:38:43;26.70;70.40
1538;DHT22;12022;52.266;10.522;2022-07-23T14:41:10;26.70;70.90
1538;DHT22;12022;52.266;10.522;2022-07-23T14:43:37;26.60;68.90
1538;DHT22;12022;52.266;10.522;2022-07-23T14:46:05;26.50;70.00
1538;DHT22;12022;52.266;10.522;2022-07-23T14:48:32;26.50;70.60
1538;DHT22;12022;52.266;10.522;2022-07-23T14:50:59;26.40;71.60
1538;DHT22;12022;52.266;10.522;2022-07-23T14:53:28;26.40;71.00
1538;DHT22;12022;52.266;10.522;2022-07-23T14:55:55;26.30;71.30
1538;DHT22;12022;52.266;10.522;2022-07-23T14:58:24;26.30;70.50
1538;DHT22;12022;52.266;10.522;2022-07-23T15:00:52;26.10;70.60
1538;DHT22;12022;52.266;10.522;2022-07-23T15:03:19;25.90;70.70
1538;DHT22;12022;52.266;10.522;2022-07-23T15:06:12;25.90;71.80
1538;DHT22;12022;52.266;10.522;2022-07-23T15:08:40;25.80;71.70
1538;DHT22;12022;52.266;10.522;2022-07-23T15:11:07;25.80;71.00
1538;DHT22;12022;52.266;10.522;2022-07-23T15:13:37;25.70;70.00
1538;DHT22;12022;52.266;10.522;2022-07-23T15:16:05;25.70;72.10
1538;DHT22;12022;52.266;10.522;2022-07-23T15:18:36;25.70;71.40
1538;DHT22;12022;52.266;10.522;2022-07-23T15:21:04;25.60;70.50
1538;DHT22;12022;52.266;10.522;2022-07-23T15:23:32;25.60;71.30
1538;DHT22;12022;52.266;10.522;2022-07-23T15:25:59;25.50;70.70
1538;DHT22;12022;52.266;10.522;2022-07-23T15:28:26;25.40;70.80
1538;DHT22;12022;52.266;10.522;2022-07-23T15:30:53;25.40;70.30
1538;DHT22;12022;52.266;10.522;2022-07-23T15:33:20;25.40;70.20
1538;DHT22;12022;52.266;10.522;2022-07-23T15:35:48;25.40;70.00
1538;DHT22;12022;52.266;10.522;2022-07-23T15:38:15;25.30;69.50
1538;DHT22;12022;52.266;10.522;2022-07-23T15:40:53;25.30;70.70
1538;DHT22;12022;52.266;10.522;2022-07-23T15:43:22;25.20;69.40
1538;DHT22;12022;52.266;10.522;2022-07-23T15:45:52;25.20;70.60
1538;DHT22;12022;52.266;10.522;2022-07-23T15:48:21;25.10;70.60
1538;DHT22;12022;52.266;10.522;2022-07-23T15:50:48;25.20;71.20
1538;DHT22;12022;52.266;10.522;2022-07-23T15:53:16;25.20;72.70
1538;DHT22;12022;52.266;10.522;2022-07-23T15:56:04;25.20;70.40
1538;DHT22;12022;52.266;10.522;2022-07-23T15:58:36;25.10;70.20
1538;DHT22;12022;52.266;10.522;2022-07-23T16:01:05;25.10;71.20
1538;DHT22;12022;52.266;10.522;2022-07-23T16:03:34;25.00;70.20
1538;DHT22;12022;52.266;10.522;2022-07-23T16:06:03;25.00;73.10
1538;DHT22;12022;52.266;10.522;2022-07-23T16:08:40;25.00;72.40
1538;DHT22;12022;52.266;10.522;2022-07-23T16:11:07;24.90;71.60
1538;DHT22;12022;52.266;10.522;2022-07-23T16:13:38;25.00;73.40
1538;DHT22;12022;52.266;10.522;2022-07-23T16:16:05;25.00;71.70
1538;DHT22;12022;52.266;10.522;2022-07-23T16:18:33;25.00;71.70
1538;DHT22;12022;52.266;10.522;2022-07-23T16:21:00;24.90;70.80